LFMN Airport Information

Runway Information
Runway 04R Length 9721 ft width 148 ft Elevation 10 ft Threshold N/A Heading 45
Runway 22L Length 9721 ft Width 148 ft Elevation 12 ft Threshold N/A Heading 225
Runway 04L Length 8622 ft width 148 ft Elevation 11 ft Threshold N/A Heading 45
Runway 22R Length 8622 ft Width 148 ft Elevation 10 ft Threshold 575 ft Heading 225
Airport Frequencies
Type A/D Name NICE APP Frequency 124.175 MHZ
Type ATIS Name NICE ATIS Frequency 129.6 MHZ
Type GND Name NICE GND Frequency 121.775 MHZ
Type TWR Name NICE TWR Frequency 118.7 MHZ
Airport Navaids
Type VOR-DME Name Nice Cote D Azur Frequency 109650 KHZ
Type VOR-DME Name Cagnes Sur Mer Frequency 109200 KHZ
Type NDB Name Nice Frequency 399 KHZ
Type VOR-DME Name Nice Frequency 112400 KHZ
Airport Weather Information & NOTAM
ADDS - METARS form results

(1745 UTC 13 January 2023)
Data provider http://aviationweather.gov/metar/data/
 
METAR text: LFMN 131730Z 32008KT CAVOK 10/07 Q1018 NOSIG
Conditions at: LFMN (NICE/COTE D'AZUR, FR) observed 1730 UTC 13 January 2023
Temperature: 10.0°C (50°F)
Dewpoint: 7.0°C (45°F) [RH = 82%]
Pressure (altimeter): 30.06 inches Hg (1018.0 mb)
Winds: from the NW (320 degrees) at 9 MPH (8 knots; 4.1 m/s)
Visibility: 6 or more miles (10+ km)
Ceiling: ceiling and visibility are OK
Clouds: unknown
Weather: no significant weather observed at this time

METAR text: LFMN 131700Z 03005KT CAVOK 11/08 Q1017 NOSIG
Conditions at: LFMN (NICE/COTE D'AZUR, FR) observed 1700 UTC 13 January 2023
Temperature: 11.0°C (52°F)
Dewpoint: 8.0°C (46°F) [RH = 82%]
Pressure (altimeter): 30.03 inches Hg (1017.0 mb)
Winds: from the NNE (30 degrees) at 6 MPH (5 knots; 2.6 m/s)
Visibility: 6 or more miles (10+ km)
Ceiling: ceiling and visibility are OK
Clouds: unknown
Weather: no significant weather observed at this time

Forecast for: LFMN (NICE/COTE D'AZUR, FR)
Text: TAF LFMN 131400Z 1315/1421 VRB04KT CAVOK
Forecast period: 1500 to 2000 UTC 13 January 2023
Forecast type: FROM: standard forecast or significant change
Winds: variable direction winds at 5 MPH (4 knots; 2.1 m/s)
Visibility: 6 or more miles (10+ km)
Ceiling: unknown
Clouds: missing
Weather: NSW  (no significant weather)
Text: BECMG 1320/1322 33010KT
Forecast period: 2000 UTC 13 January 2023 to 1000 UTC 14 January 2023
Forecast type: BECOMING: Conditions expected to become as follows by 2200 UTC 13 January 2023
Winds: from the NNW (330 degrees) at 12 MPH (10 knots; 5.1 m/s)
Visibility: 6 or more miles (10+ km)
Ceiling: unknown
Clouds: missing
Weather: NSW  (no significant weather)
Text: BECMG 1410/1413 VRB03KT
Forecast period: 1000 to 2100 UTC 14 January 2023
Forecast type: BECOMING: Conditions expected to become as follows by 1300 UTC 14 January 2023
Winds: variable direction winds at 3 MPH (3 knots; 1.5 m/s)
Visibility: 6 or more miles (10+ km)
Ceiling: unknown
Clouds: missing
Weather: NSW  (no significant weather)